sensor_id;sensor_type;location;lat;lon;timestamp;P1;durP1;ratioP1;P2;durP2;ratioP2
76712;SDS011;65640;43.154;25.658;2023-07-13T00:00:32;11.70;;;10.30;;
76712;SDS011;65640;43.154;25.658;2023-07-13T00:02:58;13.38;;;12.13;;
76712;SDS011;65640;43.154;25.658;2023-07-13T00:05:23;13.45;;;12.07;;
76712;SDS011;65640;43.154;25.658;2023-07-13T00:07:49;16.33;;;12.55;;
76712;SDS011;65640;43.154;25.658;2023-07-13T00:10:16;14.25;;;12.35;;
76712;SDS011;65640;43.154;25.658;2023-07-13T00:12:42;14.70;;;13.20;;
76712;SDS011;65640;43.154;25.658;2023-07-13T00:15:11;13.32;;;12.07;;
76712;SDS011;65640;43.154;25.658;2023-07-13T00:17:41;14.73;;;13.15;;
76712;SDS011;65640;43.154;25.658;2023-07-13T00:20:09;15.88;;;13.57;;
76712;SDS011;65640;43.154;25.658;2023-07-13T00:22:36;14.18;;;12.95;;
76712;SDS011;65640;43.154;25.658;2023-07-13T00:25:01;14.57;;;13.07;;
76712;SDS011;65640;43.154;25.658;2023-07-13T00:27:27;13.95;;;12.70;;
76712;SDS011;65640;43.154;25.658;2023-07-13T00:29:54;14.40;;;13.10;;
76712;SDS011;65640;43.154;25.658;2023-07-13T00:32:20;17.27;;;13.70;;
76712;SDS011;65640;43.154;25.658;2023-07-13T00:34:46;14.88;;;13.43;;
76712;SDS011;65640;43.154;25.658;2023-07-13T00:37:12;14.65;;;13.18;;
76712;SDS011;65640;43.154;25.658;2023-07-13T00:39:37;13.93;;;12.52;;
76712;SDS011;65640;43.154;25.658;2023-07-13T00:42:04;15.13;;;13.18;;
76712;SDS011;65640;43.154;25.658;2023-07-13T00:44:29;15.07;;;13.77;;
76712;SDS011;65640;43.154;25.658;2023-07-13T00:46:55;14.60;;;13.00;;
76712;SDS011;65640;43.154;25.658;2023-07-13T00:49:23;15.68;;;13.70;;
76712;SDS011;65640;43.154;25.658;2023-07-13T00:51:54;17.17;;;14.18;;
76712;SDS011;65640;43.154;25.658;2023-07-13T00:54:32;15.75;;;14.15;;
76712;SDS011;65640;43.154;25.658;2023-07-13T00:57:02;15.82;;;14.18;;
76712;SDS011;65640;43.154;25.658;2023-07-13T00:59:31;15.07;;;13.75;;
76712;SDS011;65640;43.154;25.658;2023-07-13T01:01:59;15.05;;;13.65;;
76712;SDS011;65640;43.154;25.658;2023-07-13T01:04:25;15.20;;;13.75;;
76712;SDS011;65640;43.154;25.658;2023-07-13T01:06:51;15.80;;;13.32;;
76712;SDS011;65640;43.154;25.658;2023-07-13T01:09:17;15.70;;;14.10;;
76712;SDS011;65640;43.154;25.658;2023-07-13T01:11:43;14.85;;;13.35;;
76712;SDS011;65640;43.154;25.658;2023-07-13T01:14:10;18.10;;;14.25;;
76712;SDS011;65640;43.154;25.658;2023-07-13T01:16:36;16.80;;;14.15;;
76712;SDS011;65640;43.154;25.658;2023-07-13T01:19:14;15.88;;;13.27;;
76712;SDS011;65640;43.154;25.658;2023-07-13T01:22:01;13.88;;;11.93;;
76712;SDS011;65640;43.154;25.658;2023-07-13T01:24:38;15.43;;;13.93;;
76712;SDS011;65640;43.154;25.658;2023-07-13T01:27:06;16.08;;;14.20;;
76712;SDS011;65640;43.154;25.658;2023-07-13T01:29:33;24.40;;;14.30;;
76712;SDS011;65640;43.154;25.658;2023-07-13T01:32:00;17.48;;;12.40;;
76712;SDS011;65640;43.154;25.658;2023-07-13T01:34:26;18.00;;;15.20;;
76712;SDS011;65640;43.154;25.658;2023-07-13T01:36:52;15.73;;;14.18;;
76712;SDS011;65640;43.154;25.658;2023-07-13T01:39:21;15.80;;;14.32;;
76712;SDS011;65640;43.154;25.658;2023-07-13T01:41:47;15.82;;;14.23;;
76712;SDS011;65640;43.154;25.658;2023-07-13T01:44:13;14.25;;;12.95;;
76712;SDS011;65640;43.154;25.658;2023-07-13T01:46:39;14.65;;;12.90;;
76712;SDS011;65640;43.154;25.658;2023-07-13T01:49:04;14.70;;;13.40;;
76712;SDS011;65640;43.154;25.658;2023-07-13T01:51:30;19.08;;;13.95;;
76712;SDS011;65640;43.154;25.658;2023-07-13T01:53:55;15.25;;;13.70;;
76712;SDS011;65640;43.154;25.658;2023-07-13T01:56:20;16.85;;;14.65;;
76712;SDS011;65640;43.154;25.658;2023-07-13T01:58:46;16.23;;;14.57;;
76712;SDS011;65640;43.154;25.658;2023-07-13T02:01:12;16.25;;;14.45;;
76712;SDS011;65640;43.154;25.658;2023-07-13T02:03:37;16.02;;;14.40;;
76712;SDS011;65640;43.154;25.658;2023-07-13T02:06:02;16.75;;;14.45;;
76712;SDS011;65640;43.154;25.658;2023-07-13T02:08:28;14.85;;;12.63;;
76712;SDS011;65640;43.154;25.658;2023-07-13T02:10:54;15.25;;;13.75;;
76712;SDS011;65640;43.154;25.658;2023-07-13T02:13:19;13.75;;;12.40;;
76712;SDS011;65640;43.154;25.658;2023-07-13T02:15:45;16.17;;;14.50;;
76712;SDS011;65640;43.154;25.658;2023-07-13T02:18:10;15.95;;;14.27;;
76712;SDS011;65640;43.154;25.658;2023-07-13T02:20:36;14.00;;;11.75;;
76712;SDS011;65640;43.154;25.658;2023-07-13T02:23:01;12.90;;;11.60;;
76712;SDS011;65640;43.154;25.658;2023-07-13T02:25:27;14.88;;;13.15;;
76712;SDS011;65640;43.154;25.658;2023-07-13T02:27:52;16.92;;;12.77;;
76712;SDS011;65640;43.154;25.658;2023-07-13T02:30:17;13.00;;;11.45;;
76712;SDS011;65640;43.154;25.658;2023-07-13T02:32:43;18.23;;;13.75;;
76712;SDS011;65640;43.154;25.658;2023-07-13T02:37:35;14.90;;;13.00;;
76712;SDS011;65640;43.154;25.658;2023-07-13T02:40:00;13.75;;;12.48;;
76712;SDS011;65640;43.154;25.658;2023-07-13T02:42:25;14.93;;;12.90;;
76712;SDS011;65640;43.154;25.658;2023-07-13T02:44:51;15.38;;;13.88;;
76712;SDS011;65640;43.154;25.658;2023-07-13T02:47:16;15.77;;;14.10;;
76712;SDS011;65640;43.154;25.658;2023-07-13T02:49:42;13.23;;;12.00;;
76712;SDS011;65640;43.154;25.658;2023-07-13T02:52:07;15.23;;;13.75;;
76712;SDS011;65640;43.154;25.658;2023-07-13T02:54:33;15.13;;;13.65;;
76712;SDS011;65640;43.154;25.658;2023-07-13T02:56:58;14.68;;;13.48;;
76712;SDS011;65640;43.154;25.658;2023-07-13T02:59:23;16.25;;;14.32;;
76712;SDS011;65640;43.154;25.658;2023-07-13T03:01:49;15.02;;;12.35;;
76712;SDS011;65640;43.154;25.658;2023-07-13T03:04:14;22.52;;;13.82;;
76712;SDS011;65640;43.154;25.658;2023-07-13T03:06:44;13.88;;;12.30;;
76712;SDS011;65640;43.154;25.658;2023-07-13T03:09:10;18.35;;;15.00;;
76712;SDS011;65640;43.154;25.658;2023-07-13T03:11:37;14.90;;;13.40;;
76712;SDS011;65640;43.154;25.658;2023-07-13T03:14:03;15.00;;;13.50;;
76712;SDS011;65640;43.154;25.658;2023-07-13T03:16:28;14.88;;;13.38;;
76712;SDS011;65640;43.154;25.658;2023-07-13T03:18:54;20.23;;;13.95;;
76712;SDS011;65640;43.154;25.658;2023-07-13T03:21:19;14.90;;;13.38;;
76712;SDS011;65640;43.154;25.658;2023-07-13T03:23:45;20.23;;;13.43;;
76712;SDS011;65640;43.154;25.658;2023-07-13T03:26:12;15.75;;;14.10;;
76712;SDS011;65640;43.154;25.658;2023-07-13T03:28:41;19.63;;;13.18;;
76712;SDS011;65640;43.154;25.658;2023-07-13T03:31:12;15.82;;;14.15;;
76712;SDS011;65640;43.154;25.658;2023-07-13T03:33:42;16.00;;;13.82;;
76712;SDS011;65640;43.154;25.658;2023-07-13T03:38:36;14.27;;;12.85;;
76712;SDS011;65640;43.154;25.658;2023-07-13T03:41:01;14.70;;;13.35;;
76712;SDS011;65640;43.154;25.658;2023-07-13T03:43:27;14.13;;;12.80;;
76712;SDS011;65640;43.154;25.658;2023-07-13T03:45:52;15.30;;;13.55;;
76712;SDS011;65640;43.154;25.658;2023-07-13T03:48:18;15.00;;;13.75;;
76712;SDS011;65640;43.154;25.658;2023-07-13T03:50:43;14.20;;;12.75;;
76712;SDS011;65640;43.154;25.658;2023-07-13T03:53:09;13.98;;;12.48;;
76712;SDS011;65640;43.154;25.658;2023-07-13T03:55:34;14.10;;;12.85;;
76712;SDS011;65640;43.154;25.658;2023-07-13T03:58:24;14.95;;;13.43;;
76712;SDS011;65640;43.154;25.658;2023-07-13T04:03:17;15.63;;;14.02;;
76712;SDS011;65640;43.154;25.658;2023-07-13T04:05:42;16.70;;;14.63;;
76712;SDS011;65640;43.154;25.658;2023-07-13T04:08:07;15.00;;;13.60;;
76712;SDS011;65640;43.154;25.658;2023-07-13T04:10:33;15.30;;;13.65;;
76712;SDS011;65640;43.154;25.658;2023-07-13T04:12:58;14.38;;;13.02;;
76712;SDS011;65640;43.154;25.658;2023-07-13T04:15:24;15.00;;;13.50;;
76712;SDS011;65640;43.154;25.658;2023-07-13T04:17:49;13.02;;;11.77;;
76712;SDS011;65640;43.154;25.658;2023-07-13T04:20:14;13.55;;;12.23;;
76712;SDS011;65640;43.154;25.658;2023-07-13T04:22:40;13.68;;;12.30;;
76712;SDS011;65640;43.154;25.658;2023-07-13T04:25:05;15.27;;;13.27;;
76712;SDS011;65640;43.154;25.658;2023-07-13T04:27:31;18.60;;;13.32;;
76712;SDS011;65640;43.154;25.658;2023-07-13T04:29:57;14.35;;;12.63;;
76712;SDS011;65640;43.154;25.658;2023-07-13T04:32:22;18.75;;;13.20;;
76712;SDS011;65640;43.154;25.658;2023-07-13T04:34:48;15.48;;;11.75;;
76712;SDS011;65640;43.154;25.658;2023-07-13T04:37:18;15.85;;;12.90;;
76712;SDS011;65640;43.154;25.658;2023-07-13T04:39:44;14.43;;;12.98;;
76712;SDS011;65640;43.154;25.658;2023-07-13T04:42:10;14.45;;;12.95;;
76712;SDS011;65640;43.154;25.658;2023-07-13T04:44:35;14.18;;;12.88;;
76712;SDS011;65640;43.154;25.658;2023-07-13T04:47:01;15.75;;;13.30;;
76712;SDS011;65640;43.154;25.658;2023-07-13T04:49:26;17.30;;;14.27;;
76712;SDS011;65640;43.154;25.658;2023-07-13T04:51:52;16.80;;;14.05;;
76712;SDS011;65640;43.154;25.658;2023-07-13T04:54:17;17.98;;;14.57;;
76712;SDS011;65640;43.154;25.658;2023-07-13T04:56:42;18.42;;;13.77;;
76712;SDS011;65640;43.154;25.658;2023-07-13T04:59:08;17.10;;;15.00;;
76712;SDS011;65640;43.154;25.658;2023-07-13T05:01:33;18.52;;;15.35;;
76712;SDS011;65640;43.154;25.658;2023-07-13T05:03:59;16.40;;;14.77;;
76712;SDS011;65640;43.154;25.658;2023-07-13T05:06:24;15.40;;;13.90;;
76712;SDS011;65640;43.154;25.658;2023-07-13T05:08:50;19.88;;;15.35;;
76712;SDS011;65640;43.154;25.658;2023-07-13T05:11:18;19.77;;;16.65;;
76712;SDS011;65640;43.154;25.658;2023-07-13T05:13:43;17.95;;;15.80;;
76712;SDS011;65640;43.154;25.658;2023-07-13T05:16:09;16.67;;;14.57;;
76712;SDS011;65640;43.154;25.658;2023-07-13T05:18:35;18.42;;;15.48;;
76712;SDS011;65640;43.154;25.658;2023-07-13T05:23:27;20.27;;;14.93;;
76712;SDS011;65640;43.154;25.658;2023-07-13T05:25:53;18.48;;;15.93;;
76712;SDS011;65640;43.154;25.658;2023-07-13T05:28:18;16.55;;;13.68;;
76712;SDS011;65640;43.154;25.658;2023-07-13T05:30:48;17.55;;;13.75;;
76712;SDS011;65640;43.154;25.658;2023-07-13T05:33:14;13.60;;;12.00;;
76712;SDS011;65640;43.154;25.658;2023-07-13T05:38:05;15.15;;;13.50;;
76712;SDS011;65640;43.154;25.658;2023-07-13T05:40:31;14.55;;;13.02;;
76712;SDS011;65640;43.154;25.658;2023-07-13T05:42:56;15.63;;;14.18;;
76712;SDS011;65640;43.154;25.658;2023-07-13T05:45:22;15.98;;;14.27;;
76712;SDS011;65640;43.154;25.658;2023-07-13T05:50:12;16.95;;;14.95;;
76712;SDS011;65640;43.154;25.658;2023-07-13T05:55:03;19.60;;;13.88;;
76712;SDS011;65640;43.154;25.658;2023-07-13T05:59:55;15.90;;;13.73;;
76712;SDS011;65640;43.154;25.658;2023-07-13T06:04:46;22.15;;;14.48;;
76712;SDS011;65640;43.154;25.658;2023-07-13T06:09:36;17.50;;;15.60;;
76712;SDS011;65640;43.154;25.658;2023-07-13T06:12:03;19.98;;;16.63;;
76712;SDS011;65640;43.154;25.658;2023-07-13T06:14:29;15.90;;;14.50;;
76712;SDS011;65640;43.154;25.658;2023-07-13T06:16:55;18.20;;;14.30;;
76712;SDS011;65640;43.154;25.658;2023-07-13T06:21:46;15.65;;;14.18;;
76712;SDS011;65640;43.154;25.658;2023-07-13T06:26:37;14.88;;;13.25;;
76712;SDS011;65640;43.154;25.658;2023-07-13T06:29:02;15.13;;;13.35;;
76712;SDS011;65640;43.154;25.658;2023-07-13T06:31:27;17.75;;;13.20;;
76712;SDS011;65640;43.154;25.658;2023-07-13T06:36:18;14.88;;;13.43;;
76712;SDS011;65640;43.154;25.658;2023-07-13T06:38:44;14.20;;;12.88;;
76712;SDS011;65640;43.154;25.658;2023-07-13T06:41:09;16.02;;;14.35;;
76712;SDS011;65640;43.154;25.658;2023-07-13T06:43:34;17.92;;;14.60;;
76712;SDS011;65640;43.154;25.658;2023-07-13T06:46:00;18.38;;;14.15;;
76712;SDS011;65640;43.154;25.658;2023-07-13T06:48:26;15.93;;;14.18;;
76712;SDS011;65640;43.154;25.658;2023-07-13T06:50:51;20.40;;;15.32;;
76712;SDS011;65640;43.154;25.658;2023-07-13T06:53:18;20.77;;;15.48;;
76712;SDS011;65640;43.154;25.658;2023-07-13T06:55:45;16.75;;;14.25;;
76712;SDS011;65640;43.154;25.658;2023-07-13T06:58:11;16.05;;;14.40;;
76712;SDS011;65640;43.154;25.658;2023-07-13T07:00:36;14.80;;;13.45;;
76712;SDS011;65640;43.154;25.658;2023-07-13T07:03:02;14.40;;;12.10;;
76712;SDS011;65640;43.154;25.658;2023-07-13T07:05:27;15.10;;;13.52;;
76712;SDS011;65640;43.154;25.658;2023-07-13T07:07:54;14.68;;;13.25;;
76712;SDS011;65640;43.154;25.658;2023-07-13T07:10:20;16.92;;;13.27;;
76712;SDS011;65640;43.154;25.658;2023-07-13T07:12:46;15.73;;;14.25;;
76712;SDS011;65640;43.154;25.658;2023-07-13T07:15:11;19.48;;;12.93;;
76712;SDS011;65640;43.154;25.658;2023-07-13T07:17:37;14.82;;;13.27;;
76712;SDS011;65640;43.154;25.658;2023-07-13T07:20:03;15.60;;;14.00;;
76712;SDS011;65640;43.154;25.658;2023-07-13T07:22:29;13.05;;;11.80;;
76712;SDS011;65640;43.154;25.658;2023-07-13T07:24:55;14.82;;;12.57;;
76712;SDS011;65640;43.154;25.658;2023-07-13T07:27:21;15.77;;;13.82;;
76712;SDS011;65640;43.154;25.658;2023-07-13T07:29:47;21.38;;;13.00;;
76712;SDS011;65640;43.154;25.658;2023-07-13T07:32:12;12.60;;;11.45;;
76712;SDS011;65640;43.154;25.658;2023-07-13T07:34:38;13.90;;;12.55;;
76712;SDS011;65640;43.154;25.658;2023-07-13T07:37:03;14.25;;;12.82;;
76712;SDS011;65640;43.154;25.658;2023-07-13T07:39:29;22.88;;;13.13;;
76712;SDS011;65640;43.154;25.658;2023-07-13T07:41:55;11.80;;;10.60;;
76712;SDS011;65640;43.154;25.658;2023-07-13T07:44:21;15.05;;;12.10;;
76712;SDS011;65640;43.154;25.658;2023-07-13T07:46:46;12.48;;;11.30;;
76712;SDS011;65640;43.154;25.658;2023-07-13T07:49:12;16.05;;;11.70;;
76712;SDS011;65640;43.154;25.658;2023-07-13T07:51:38;12.57;;;11.18;;
76712;SDS011;65640;43.154;25.658;2023-07-13T07:54:03;13.70;;;12.18;;
76712;SDS011;65640;43.154;25.658;2023-07-13T07:56:29;10.20;;;9.27;;
76712;SDS011;65640;43.154;25.658;2023-07-13T07:58:55;12.38;;;10.98;;
76712;SDS011;65640;43.154;25.658;2023-07-13T08:01:20;11.80;;;10.70;;
76712;SDS011;65640;43.154;25.658;2023-07-13T08:03:46;12.68;;;11.40;;
76712;SDS011;65640;43.154;25.658;2023-07-13T08:06:11;12.00;;;10.85;;
76712;SDS011;65640;43.154;25.658;2023-07-13T08:08:37;12.38;;;11.20;;
76712;SDS011;65640;43.154;25.658;2023-07-13T08:11:03;14.77;;;10.68;;
76712;SDS011;65640;43.154;25.658;2023-07-13T08:13:30;11.63;;;10.70;;
76712;SDS011;65640;43.154;25.658;2023-07-13T08:15:55;11.65;;;10.45;;
76712;SDS011;65640;43.154;25.658;2023-07-13T08:18:21;11.82;;;10.60;;
76712;SDS011;65640;43.154;25.658;2023-07-13T08:20:46;12.68;;;9.90;;
76712;SDS011;65640;43.154;25.658;2023-07-13T08:23:12;13.32;;;9.18;;
76712;SDS011;65640;43.154;25.658;2023-07-13T08:25:37;13.73;;;10.13;;
76712;SDS011;65640;43.154;25.658;2023-07-13T08:28:03;11.32;;;10.38;;
76712;SDS011;65640;43.154;25.658;2023-07-13T08:30:29;11.23;;;9.38;;
76712;SDS011;65640;43.154;25.658;2023-07-13T08:32:54;12.77;;;9.00;;
76712;SDS011;65640;43.154;25.658;2023-07-13T08:35:20;10.55;;;9.60;;
76712;SDS011;65640;43.154;25.658;2023-07-13T08:37:46;9.80;;;8.80;;
76712;SDS011;65640;43.154;25.658;2023-07-13T08:40:11;10.32;;;9.25;;
76712;SDS011;65640;43.154;25.658;2023-07-13T08:42:45;12.68;;;9.32;;
76712;SDS011;65640;43.154;25.658;2023-07-13T08:47:46;9.02;;;8.25;;
76712;SDS011;65640;43.154;25.658;2023-07-13T08:50:19;9.48;;;7.60;;
76712;SDS011;65640;43.154;25.658;2023-07-13T08:52:49;9.20;;;8.50;;
76712;SDS011;65640;43.154;25.658;2023-07-13T08:55:15;15.27;;;8.45;;
76712;SDS011;65640;43.154;25.658;2023-07-13T08:57:46;11.00;;;8.57;;
76712;SDS011;65640;43.154;25.658;2023-07-13T09:00:26;9.27;;;8.57;;
76712;SDS011;65640;43.154;25.658;2023-07-13T09:03:03;9.98;;;7.72;;
76712;SDS011;65640;43.154;25.658;2023-07-13T09:05:38;7.03;;;6.53;;
76712;SDS011;65640;43.154;25.658;2023-07-13T09:10:58;8.77;;;8.13;;
76712;SDS011;65640;43.154;25.658;2023-07-13T09:13:41;9.10;;;8.07;;
76712;SDS011;65640;43.154;25.658;2023-07-13T09:16:11;8.27;;;7.40;;
76712;SDS011;65640;43.154;25.658;2023-07-13T09:18:52;9.30;;;8.40;;
76712;SDS011;65640;43.154;25.658;2023-07-13T09:21:22;8.43;;;7.72;;
76712;SDS011;65640;43.154;25.658;2023-07-13T09:23:53;9.13;;;8.35;;
76712;SDS011;65640;43.154;25.658;2023-07-13T09:26:24;9.10;;;8.20;;
76712;SDS011;65640;43.154;25.658;2023-07-13T09:28:54;8.48;;;7.78;;
76712;SDS011;65640;43.154;25.658;2023-07-13T09:31:24;9.38;;;8.45;;
76712;SDS011;65640;43.154;25.658;2023-07-13T09:33:58;8.32;;;7.80;;
76712;SDS011;65640;43.154;25.658;2023-07-13T09:36:25;8.70;;;7.82;;
76712;SDS011;65640;43.154;25.658;2023-07-13T09:47:16;8.57;;;7.82;;
76712;SDS011;65640;43.154;25.658;2023-07-13T09:49:43;8.73;;;7.65;;
76712;SDS011;65640;43.154;25.658;2023-07-13T09:52:11;8.43;;;7.72;;
76712;SDS011;65640;43.154;25.658;2023-07-13T09:54:39;12.40;;;8.30;;
76712;SDS011;65640;43.154;25.658;2023-07-13T09:57:12;8.68;;;6.72;;
76712;SDS011;65640;43.154;25.658;2023-07-13T09:59:41;8.50;;;7.75;;
76712;SDS011;65640;43.154;25.658;2023-07-13T10:05:23;6.63;;;5.78;;
76712;SDS011;65640;43.154;25.658;2023-07-13T10:07:44;10.27;;;7.53;;
76712;SDS011;65640;43.154;25.658;2023-07-13T10:10:14;9.35;;;7.55;;
76712;SDS011;65640;43.154;25.658;2023-07-13T10:12:41;8.10;;;7.38;;
76712;SDS011;65640;43.154;25.658;2023-07-13T10:15:07;8.98;;;8.13;;
76712;SDS011;65640;43.154;25.658;2023-07-13T10:17:40;7.68;;;7.05;;
76712;SDS011;65640;43.154;25.658;2023-07-13T10:20:06;8.48;;;7.75;;
76712;SDS011;65640;43.154;25.658;2023-07-13T10:25:13;9.75;;;8.00;;
76712;SDS011;65640;43.154;25.658;2023-07-13T10:27:47;8.60;;;7.80;;
76712;SDS011;65640;43.154;25.658;2023-07-13T10:30:17;8.00;;;7.18;;
76712;SDS011;65640;43.154;25.658;2023-07-13T10:32:47;9.00;;;6.70;;
76712;SDS011;65640;43.154;25.658;2023-07-13T10:35:15;7.57;;;6.95;;
76712;SDS011;65640;43.154;25.658;2023-07-13T10:38:05;7.72;;;7.18;;
76712;SDS011;65640;43.154;25.658;2023-07-13T10:43:14;9.55;;;8.13;;
76712;SDS011;65640;43.154;25.658;2023-07-13T10:48:13;8.30;;;7.80;;
76712;SDS011;65640;43.154;25.658;2023-07-13T10:50:40;8.32;;;7.65;;
76712;SDS011;65640;43.154;25.658;2023-07-13T10:53:19;8.68;;;8.07;;
76712;SDS011;65640;43.154;25.658;2023-07-13T10:55:58;10.07;;;7.95;;
76712;SDS011;65640;43.154;25.658;2023-07-13T10:58:33;8.02;;;7.32;;
76712;SDS011;65640;43.154;25.658;2023-07-13T11:03:32;8.32;;;7.13;;
76712;SDS011;65640;43.154;25.658;2023-07-13T11:19:37;8.63;;;7.60;;
76712;SDS011;65640;43.154;25.658;2023-07-13T11:21:31;7.57;;;7.07;;
76712;SDS011;65640;43.154;25.658;2023-07-13T11:24:03;8.13;;;7.35;;
76712;SDS011;65640;43.154;25.658;2023-07-13T11:26:40;7.93;;;7.18;;
76712;SDS011;65640;43.154;25.658;2023-07-13T11:29:18;8.13;;;7.63;;
76712;SDS011;65640;43.154;25.658;2023-07-13T11:31:59;7.75;;;7.05;;
76712;SDS011;65640;43.154;25.658;2023-07-13T11:34:28;8.50;;;7.82;;
76712;SDS011;65640;43.154;25.658;2023-07-13T11:36:58;10.85;;;6.97;;
76712;SDS011;65640;43.154;25.658;2023-07-13T11:39:27;7.57;;;6.88;;
76712;SDS011;65640;43.154;25.658;2023-07-13T11:42:08;6.35;;;5.72;;
76712;SDS011;65640;43.154;25.658;2023-07-13T11:44:41;10.30;;;7.82;;
76712;SDS011;65640;43.154;25.658;2023-07-13T11:47:21;7.70;;;7.00;;
76712;SDS011;65640;43.154;25.658;2023-07-13T11:49:48;7.90;;;7.07;;
76712;SDS011;65640;43.154;25.658;2023-07-13T11:52:17;7.70;;;6.93;;
76712;SDS011;65640;43.154;25.658;2023-07-13T11:57:29;6.55;;;6.05;;
76712;SDS011;65640;43.154;25.658;2023-07-13T11:59:56;8.55;;;6.63;;
76712;SDS011;65640;43.154;25.658;2023-07-13T12:02:34;7.97;;;6.55;;
76712;SDS011;65640;43.154;25.658;2023-07-13T12:05:03;8.05;;;6.78;;
76712;SDS011;65640;43.154;25.658;2023-07-13T12:07:33;7.00;;;6.28;;
76712;SDS011;65640;43.154;25.658;2023-07-13T12:10:03;8.35;;;6.38;;
76712;SDS011;65640;43.154;25.658;2023-07-13T12:12:46;9.40;;;6.13;;
76712;SDS011;65640;43.154;25.658;2023-07-13T12:15:21;6.95;;;6.25;;
76712;SDS011;65640;43.154;25.658;2023-07-13T12:17:49;7.78;;;6.97;;
76712;SDS011;65640;43.154;25.658;2023-07-13T12:20:23;10.70;;;7.05;;
76712;SDS011;65640;43.154;25.658;2023-07-13T12:22:51;7.75;;;6.82;;
76712;SDS011;65640;43.154;25.658;2023-07-13T12:25:17;7.28;;;6.38;;
76712;SDS011;65640;43.154;25.658;2023-07-13T12:27:46;7.13;;;6.20;;
76712;SDS011;65640;43.154;25.658;2023-07-13T12:32:55;5.97;;;5.43;;
76712;SDS011;65640;43.154;25.658;2023-07-13T12:35:26;6.57;;;5.82;;
76712;SDS011;65640;43.154;25.658;2023-07-13T12:37:54;6.65;;;5.97;;
76712;SDS011;65640;43.154;25.658;2023-07-13T12:40:25;12.02;;;6.15;;
76712;SDS011;65640;43.154;25.658;2023-07-13T12:42:56;6.43;;;5.80;;
76712;SDS011;65640;43.154;25.658;2023-07-13T12:45:25;6.80;;;6.28;;
76712;SDS011;65640;43.154;25.658;2023-07-13T12:47:56;5.70;;;5.20;;
76712;SDS011;65640;43.154;25.658;2023-07-13T12:50:29;6.05;;;5.55;;
76712;SDS011;65640;43.154;25.658;2023-07-13T12:53:01;5.25;;;4.88;;
76712;SDS011;65640;43.154;25.658;2023-07-13T12:55:45;5.90;;;5.40;;
76712;SDS011;65640;43.154;25.658;2023-07-13T13:01:03;10.57;;;6.15;;
76712;SDS011;65640;43.154;25.658;2023-07-13T13:03:49;6.43;;;5.25;;
76712;SDS011;65640;43.154;25.658;2023-07-13T13:08:43;14.75;;;4.88;;
76712;SDS011;65640;43.154;25.658;2023-07-13T13:11:10;5.35;;;4.95;;
76712;SDS011;65640;43.154;25.658;2023-07-13T13:13:35;10.63;;;5.10;;
76712;SDS011;65640;43.154;25.658;2023-07-13T13:18:53;8.05;;;5.18;;
76712;SDS011;65640;43.154;25.658;2023-07-13T13:21:19;7.50;;;5.78;;
76712;SDS011;65640;43.154;25.658;2023-07-13T13:23:45;7.40;;;5.05;;
76712;SDS011;65640;43.154;25.658;2023-07-13T13:26:11;6.65;;;5.07;;
76712;SDS011;65640;43.154;25.658;2023-07-13T13:28:38;5.82;;;5.32;;
76712;SDS011;65640;43.154;25.658;2023-07-13T13:31:04;5.70;;;4.78;;
76712;SDS011;65640;43.154;25.658;2023-07-13T13:33:29;5.75;;;5.03;;
76712;SDS011;65640;43.154;25.658;2023-07-13T13:35:55;6.40;;;5.03;;
76712;SDS011;65640;43.154;25.658;2023-07-13T13:38:25;5.95;;;5.22;;
76712;SDS011;65640;43.154;25.658;2023-07-13T13:40:52;7.10;;;4.65;;
76712;SDS011;65640;43.154;25.658;2023-07-13T13:43:18;7.07;;;4.90;;
76712;SDS011;65640;43.154;25.658;2023-07-13T13:45:45;8.38;;;5.32;;
76712;SDS011;65640;43.154;25.658;2023-07-13T13:48:18;5.47;;;5.07;;
76712;SDS011;65640;43.154;25.658;2023-07-13T13:50:46;5.20;;;4.90;;
76712;SDS011;65640;43.154;25.658;2023-07-13T13:53:13;7.30;;;5.43;;
76712;SDS011;65640;43.154;25.658;2023-07-13T13:55:38;5.82;;;4.80;;
76712;SDS011;65640;43.154;25.658;2023-07-13T13:58:06;4.70;;;4.40;;
76712;SDS011;65640;43.154;25.658;2023-07-13T14:00:33;8.30;;;3.97;;
76712;SDS011;65640;43.154;25.658;2023-07-13T14:02:58;6.22;;;5.07;;
76712;SDS011;65640;43.154;25.658;2023-07-13T14:05:25;5.05;;;4.65;;
76712;SDS011;65640;43.154;25.658;2023-07-13T14:07:51;4.45;;;3.55;;
76712;SDS011;65640;43.154;25.658;2023-07-13T14:10:18;5.00;;;4.55;;
76712;SDS011;65640;43.154;25.658;2023-07-13T14:12:48;4.90;;;4.32;;
76712;SDS011;65640;43.154;25.658;2023-07-13T14:15:18;12.13;;;4.22;;
76712;SDS011;65640;43.154;25.658;2023-07-13T14:17:46;5.00;;;4.55;;
76712;SDS011;65640;43.154;25.658;2023-07-13T14:20:14;6.90;;;4.88;;
76712;SDS011;65640;43.154;25.658;2023-07-13T14:22:40;11.60;;;3.83;;
76712;SDS011;65640;43.154;25.658;2023-07-13T14:25:10;10.57;;;4.88;;
76712;SDS011;65640;43.154;25.658;2023-07-13T14:27:37;6.60;;;4.68;;
76712;SDS011;65640;43.154;25.658;2023-07-13T14:30:03;7.32;;;4.18;;
76712;SDS011;65640;43.154;25.658;2023-07-13T14:32:28;14.52;;;5.50;;
76712;SDS011;65640;43.154;25.658;2023-07-13T14:34:54;10.65;;;4.85;;
76712;SDS011;65640;43.154;25.658;2023-07-13T14:37:19;6.80;;;5.65;;
76712;SDS011;65640;43.154;25.658;2023-07-13T14:39:45;8.05;;;5.22;;
76712;SDS011;65640;43.154;25.658;2023-07-13T14:42:16;147.45;;;12.57;;
76712;SDS011;65640;43.154;25.658;2023-07-13T14:44:41;6.93;;;4.43;;
76712;SDS011;65640;43.154;25.658;2023-07-13T14:47:07;9.18;;;5.05;;
76712;SDS011;65640;43.154;25.658;2023-07-13T14:49:37;5.30;;;4.80;;
76712;SDS011;65640;43.154;25.658;2023-07-13T14:52:21;7.63;;;5.82;;
76712;SDS011;65640;43.154;25.658;2023-07-13T14:54:48;11.90;;;5.22;;
76712;SDS011;65640;43.154;25.658;2023-07-13T14:57:18;7.72;;;4.95;;
76712;SDS011;65640;43.154;25.658;2023-07-13T14:59:44;5.25;;;4.85;;
76712;SDS011;65640;43.154;25.658;2023-07-13T15:05:05;8.48;;;5.10;;
76712;SDS011;65640;43.154;25.658;2023-07-13T15:07:38;7.00;;;4.20;;
76712;SDS011;65640;43.154;25.658;2023-07-13T15:10:11;11.20;;;5.22;;
76712;SDS011;65640;43.154;25.658;2023-07-13T15:12:41;6.30;;;5.05;;
76712;SDS011;65640;43.154;25.658;2023-07-13T15:15:06;6.35;;;4.78;;
76712;SDS011;65640;43.154;25.658;2023-07-13T15:20:04;5.80;;;5.30;;
76712;SDS011;65640;43.154;25.658;2023-07-13T15:22:36;5.72;;;5.20;;
76712;SDS011;65640;43.154;25.658;2023-07-13T15:25:02;12.85;;;5.10;;
76712;SDS011;65640;43.154;25.658;2023-07-13T15:27:28;5.25;;;4.90;;
76712;SDS011;65640;43.154;25.658;2023-07-13T15:29:54;5.43;;;4.10;;
76712;SDS011;65640;43.154;25.658;2023-07-13T15:32:19;5.50;;;5.00;;
76712;SDS011;65640;43.154;25.658;2023-07-13T15:34:45;8.80;;;5.55;;
76712;SDS011;65640;43.154;25.658;2023-07-13T15:37:12;12.48;;;5.40;;
76712;SDS011;65640;43.154;25.658;2023-07-13T15:39:40;12.57;;;5.50;;
76712;SDS011;65640;43.154;25.658;2023-07-13T15:42:07;7.43;;;5.40;;
76712;SDS011;65640;43.154;25.658;2023-07-13T15:44:39;13.02;;;5.70;;
76712;SDS011;65640;43.154;25.658;2023-07-13T15:47:05;7.20;;;5.60;;
76712;SDS011;65640;43.154;25.658;2023-07-13T15:49:31;6.05;;;4.35;;
76712;SDS011;65640;43.154;25.658;2023-07-13T15:51:57;8.43;;;5.50;;